Time;durP1;ratioP1;P1;durP2;ratioP2;P2;SDS_P1;SDS_P2;PMS_P1;PMS_P2;Temp;Humidity;BMP_temperature;BMP_pressure;BME280_temperature;BME280_humidity;BME280_pressure;Samples;Min_cycle;Max_cycle;Signal;HPM_P1;HPM_P2
2022/07/19 00:02:27;;;;;;;;;;;;;;;15.07;72.85;98326.91;10376402;28;20036;-55
2022/07/19 00:07:27;;;;;;;17.45;12.63;;;;;;;14.92;73.31;98330.56;10376451;28;19915;-55
2022/07/19 00:12:25;;;;;;;;;;;;;;;14.77;73.79;98335.91;10376590;28;20067;-55
2022/07/19 00:17:24;;;;;;;18.42;11.60;;;;;;;14.72;73.21;98328.09;10375596;28;19912;-56
2022/07/19 00:22:23;;;;;;;17.15;10.88;;;;;;;14.71;73.27;98329.00;10375425;28;20041;-56
2022/07/19 00:27:22;;;;;;;15.95;9.77;;;;;;;14.72;73.66;98329.84;10375220;28;20475;-56
2022/07/19 00:32:21;;;;;;;16.00;11.20;;;;;;;14.71;73.82;98329.00;10378207;28;20024;-56
2022/07/19 00:37:20;;;;;;;13.50;8.18;;;;;;;14.71;73.47;98317.66;10378129;28;20025;-57
2022/07/19 00:42:19;;;;;;;10.48;7.07;;;;;;;14.71;73.39;98318.53;10377786;28;20036;-55
2022/07/19 00:47:20;;;;;;;11.55;7.65;;;;;;;14.73;73.50;98319.41;10377820;28;20031;-56
2022/07/19 00:52:20;;;;;;;9.40;6.93;;;;;;;14.74;73.98;98318.50;10377142;28;20075;-55
2022/07/19 00:57:19;;;;;;;12.05;7.88;;;;;;;14.65;74.49;98305.47;10377339;28;20053;-55
2022/07/19 01:02:19;;;;;;;14.10;9.68;;;;;;;14.58;75.14;98315.13;10377680;28;20068;-55
2022/07/19 01:07:18;;;;;;;15.45;10.55;;;;;;;14.39;75.88;98316.16;10376882;28;20025;-55
2022/07/19 01:12:18;;;;;;;17.40;11.13;;;;;;;14.18;76.51;98317.16;10377066;28;20057;-55
2022/07/19 01:17:17;;;;;;;17.13;11.18;;;;;;;14.05;76.61;98321.56;10376540;28;20057;-55
2022/07/19 01:22:16;;;;;;;15.55;11.35;;;;;;;13.92;76.70;98315.56;10375715;28;20115;-55
2022/07/19 01:27:15;;;;;;;17.60;11.88;;;;;;;13.85;77.12;98313.88;10376228;28;20481;-56
2022/07/19 01:32:14;;;;;;;17.27;11.38;;;;;;;13.82;77.17;98308.69;10373100;28;20036;-56
2022/07/19 01:37:13;;;;;;;19.98;12.02;;;;;;;13.80;77.15;98306.91;10372648;28;20029;-56
2022/07/19 01:42:12;;;;;;;9.52;6.80;;;;;;;13.78;77.15;98306.94;10371167;28;20056;-57
2022/07/19 01:47:11;;;;;;;10.43;8.13;;;;;;;13.75;77.43;98312.19;10372399;28;20029;-58
2022/07/19 01:52:10;;;;;;;12.82;8.10;;;;;;;13.69;77.31;98307.84;10372228;28;20039;-57
2022/07/19 01:57:09;;;;;;;13.00;8.05;;;;;;;13.73;77.57;98311.31;10372016;28;20029;-56
2022/07/19 02:02:08;;;;;;;10.32;7.32;;;;;;;13.68;77.88;98298.31;10372054;28;20072;-56
2022/07/19 02:07:07;;;;;;;9.60;6.97;;;;;;;13.76;77.73;98306.09;10371741;28;20068;-56
2022/07/19 02:12:06;;;;;;;10.63;7.03;;;;;;;13.70;77.65;98303.50;10371792;28;20039;-57
2022/07/19 02:17:05;;;;;;;;;;;;;;;13.70;78.08;98307.00;10372129;28;20087;-56
2022/07/19 02:22:04;;;;;;;9.15;6.53;;;;;;;13.69;78.21;98312.22;10376817;28;19919;-56
2022/07/19 02:27:03;;;;;;;9.15;7.05;;;;;;;13.63;78.49;98312.22;10380110;28;20021;-56
2022/07/19 02:32:02;;;;;;;10.27;7.47;;;;;;;13.58;78.68;98320.06;10379401;28;20466;-56
2022/07/19 02:37:02;;;;;;;16.65;10.00;;;;;;;13.52;79.42;98315.72;10379753;28;20543;-56
2022/07/19 02:42:01;;;;;;;17.48;9.90;;;;;;;13.42;79.65;98326.19;10379301;28;20092;-56
2022/07/19 02:47:00;;;;;;;17.55;10.65;;;;;;;13.40;79.82;98323.59;10378980;28;20032;-56
2022/07/19 02:51:59;;;;;;;13.40;8.50;;;;;;;13.40;79.74;98327.91;10378910;28;20033;-57
2022/07/19 02:56:58;;;;;;;17.95;11.32;;;;;;;13.40;79.84;98331.41;10378659;28;20029;-55
2022/07/19 03:01:56;;;;;;;17.98;11.45;;;;;;;13.36;80.12;98332.28;10378363;28;20115;-56
2022/07/19 03:06:55;;;;;;;18.05;10.98;;;;;;;13.36;80.00;98340.09;10378511;28;20025;-56
2022/07/19 03:11:54;;;;;;;15.18;11.10;;;;;;;13.39;79.95;98336.63;10378348;28;20454;-57
2022/07/19 03:16:53;;;;;;;15.40;10.40;;;;;;;13.34;80.09;98336.63;10378309;28;20024;-56
2022/07/19 03:21:54;;;;;;;18.00;11.05;;;;;;;13.23;80.07;98343.59;10379176;28;20079;-56
2022/07/19 03:26:53;;;;;;;13.10;9.95;;;;;;;13.06;80.32;98343.66;10378128;28;20538;-56
2022/07/19 03:31:52;;;;;;;17.95;9.70;;;;;;;12.96;80.71;98350.59;10377009;28;20025;-56
2022/07/19 03:36:51;;;;;;;15.27;9.98;;;;;;;12.94;80.48;98347.13;10377185;28;20140;-57
2022/07/19 03:41:50;;;;;;;16.58;10.05;;;;;;;12.93;80.59;98353.22;10377310;28;20128;-56
2022/07/19 03:46:49;;;;;;;13.32;9.75;;;;;;;12.88;81.14;98354.94;10376898;28;20021;-56
2022/07/19 03:51:47;;;;;;;15.55;9.25;;;;;;;12.93;80.84;98350.63;10376550;28;20107;-56
2022/07/19 03:56:46;;;;;;;13.88;9.73;;;;;;;12.96;80.88;98353.22;10376555;28;20115;-56
2022/07/19 04:01:45;;;;;;;13.45;9.23;;;;;;;13.08;80.41;98357.53;10376017;28;20037;-56
2022/07/19 04:06:44;;;;;;;14.73;9.95;;;;;;;13.19;80.40;98363.59;10376094;28;20065;-56
2022/07/19 04:11:43;;;;;;;13.63;8.70;;;;;;;13.20;80.39;98360.13;10375879;28;20076;-56
2022/07/19 04:16:42;;;;;;;12.88;9.30;;;;;;;13.28;80.27;98363.59;10375620;28;20025;-56
2022/07/19 04:21:41;;;;;;;15.50;9.40;;;;;;;13.34;80.46;98373.13;10375652;28;20469;-57
2022/07/19 04:26:40;;;;;;;16.00;9.48;;;;;;;13.44;80.11;98367.00;10375316;28;20515;-56
2022/07/19 04:31:39;;;;;;;14.88;10.27;;;;;;;13.48;80.19;98366.13;10375130;28;20033;-56
2022/07/19 04:36:38;;;;;;;20.10;9.85;;;;;;;13.67;79.65;98369.59;10374607;28;20033;-56
2022/07/19 04:41:37;;;;;;;17.40;10.20;;;;;;;13.88;79.26;98362.56;10374277;28;20047;-56
2022/07/19 04:46:36;;;;;;;17.85;10.05;;;;;;;14.11;78.65;98357.22;10374641;28;20539;-56
2022/07/19 04:51:35;;;;;;;16.65;10.60;;;;;;;14.31;78.56;98365.81;10366930;28;20118;-56
2022/07/19 04:56:34;;;;;;;17.20;11.48;;;;;;;14.45;78.01;98357.84;10370374;28;20044;-56
2022/07/19 05:01:34;;;;;;;17.73;11.05;;;;;;;14.68;76.77;98367.28;10372457;28;20028;-57
2022/07/19 05:06:33;;;;;;;22.90;12.32;;;;;;;14.88;76.45;98361.94;10373461;28;20475;-55
2022/07/19 05:11:31;;;;;;;;;;;;;;;15.17;75.78;98367.75;10373129;28;20498;-55
2022/07/19 05:16:30;;;;;;;18.77;12.70;;;;;;;15.41;74.87;98365.78;10373097;28;20355;-57
2022/07/19 05:21:29;;;;;;;37.00;15.43;;;;;;;15.59;74.89;98368.19;10372983;28;20060;-56
2022/07/19 05:26:28;;;;;;;17.45;12.93;;;;;;;15.86;74.65;98355.72;10372579;28;20029;-57
2022/07/19 05:31:27;;;;;;;;;;;;;;;16.06;73.47;98363.28;10375407;28;20075;-57
2022/07/19 05:36:26;;;;;;;21.13;17.17;;;;;;;16.17;72.02;98348.31;10374724;28;19913;-57
2022/07/19 05:41:25;;;;;;;;;;;;;;;16.38;71.85;98355.00;10376138;28;20045;-57
2022/07/19 05:46:24;;;;;;;13.95;9.50;;;;;;;16.42;71.28;98345.31;10375693;28;19915;-56
2022/07/19 05:51:23;;;;;;;;;;;;;;;16.70;70.11;98361.50;10375893;28;20047;-57
2022/07/19 05:56:21;;;;;;;10.50;7.03;;;;;;;16.99;69.11;98355.81;10374964;28;20410;-55
2022/07/19 06:01:23;;;;;;;;;;;;;;;17.26;68.10;98362.31;10376146;28;20069;-57
2022/07/19 06:06:24;;;;;;;8.93;6.93;;;;;;;17.47;67.16;98355.81;10374239;28;20391;-55
2022/07/19 06:11:23;;;;;;;9.63;6.82;;;;;;;17.73;66.35;98352.66;10374812;28;20498;-57
2022/07/19 06:16:23;;;;;;;7.75;5.30;;;;;;;17.92;64.08;98357.59;10374742;28;20073;-56
2022/07/19 06:21:22;;;;;;;8.27;5.70;;;;;;;18.16;62.27;98357.03;10365409;28;20158;-56
2022/07/19 06:26:21;;;;;;;7.40;6.25;;;;;;;18.26;63.85;98341.06;10356888;28;20027;-56
2022/07/19 06:31:20;;;;;;;9.88;5.57;;;;;;;18.61;62.34;98348.13;10350850;28;20059;-56
2022/07/19 06:36:20;;;;;;;8.43;5.60;;;;;;;18.87;61.47;98349.31;10364434;28;20076;-56
2022/07/19 06:41:19;;;;;;;8.50;5.28;;;;;;;19.18;60.44;98338.84;10353772;28;20100;-56
2022/07/19 06:46:18;;;;;;;6.97;5.32;;;;;;;19.34;58.87;98340.16;10371956;28;20065;-56
2022/07/19 06:51:17;;;;;;;6.80;5.93;;;;;;;19.65;58.36;98336.75;10357950;28;20036;-56
2022/07/19 06:56:16;;;;;;;9.40;5.60;;;;;;;19.87;57.78;98340.47;10354815;28;20451;-56
2022/07/19 07:01:15;;;;;;;11.32;5.22;;;;;;;20.00;56.44;98338.34;10351489;28;20396;-56
2022/07/19 07:06:13;;;;;;;12.98;5.72;;;;;;;20.31;55.66;98342.69;10354405;28;20087;-59
2022/07/19 07:11:12;;;;;;;8.38;5.43;;;;;;;20.61;55.79;98343.53;10360680;28;20472;-56
2022/07/19 07:16:11;;;;;;;14.80;5.43;;;;;;;20.88;54.36;98338.25;10368676;28;20041;-56
2022/07/19 07:21:10;;;;;;;8.43;4.85;;;;;;;21.08;53.29;98325.25;10380316;28;20484;-56
2022/07/19 07:26:09;;;;;;;10.10;4.63;;;;;;;21.34;51.19;98334.94;10379718;28;20067;-56
2022/07/19 07:31:08;;;;;;;8.68;4.32;;;;;;;21.62;50.36;98328.66;10341464;28;20073;-56
2022/07/19 07:36:07;;;;;;;7.70;5.70;;;;;;;21.69;49.95;98327.50;10373879;28;20051;-56
2022/07/19 07:41:06;;;;;;;5.38;3.60;;;;;;;21.79;47.09;98313.97;10379383;28;20060;-57
2022/07/19 07:46:05;;;;;;;7.65;3.80;;;;;;;22.17;48.43;98321.31;10341797;28;20559;-57
2022/07/19 07:51:05;;;;;;;4.90;4.30;;;;;;;22.33;46.51;98311.00;10355807;28;20663;-57
2022/07/19 07:56:04;;;;;;;6.18;3.85;;;;;;;22.65;45.73;98316.78;10368999;28;20080;-57
2022/07/19 08:01:03;;;;;;;5.65;3.10;;;;;;;22.84;44.13;98302.81;10378652;28;20064;-57
2022/07/19 08:06:02;;;;;;;6.13;3.15;;;;;;;23.03;42.62;98311.69;10342429;28;20513;-57
2022/07/19 08:11:01;;;;;;;6.75;3.92;;;;;;;23.33;41.94;98308.66;10337350;28;20069;-57
2022/07/19 08:16:00;;;;;;;6.45;3.28;;;;;;;23.64;42.47;98303.72;10357400;28;20031;-57
2022/07/19 08:20:59;;;;;;;13.05;3.30;;;;;;;23.88;40.82;98292.09;10357905;28;20072;-57
2022/07/19 08:25:58;;;;;;;7.28;2.80;;;;;;;24.05;38.70;98293.03;10356611;28;20940;-56
2022/07/19 08:30:57;;;;;;;5.40;3.35;;;;;;;24.16;37.28;98289.00;10350548;28;20946;-57
2022/07/19 08:35:56;;;;;;;42.70;5.28;;;;;;;24.05;36.89;98287.72;10359639;28;20456;-56
2022/07/19 08:40:55;;;;;;;4.50;2.75;;;;;;;24.39;36.03;98283.47;10355568;28;20068;-57
2022/07/19 08:45:59;;;;;;;3.65;2.95;;;;;;;24.47;35.69;98273.34;10379389;28;20502;-55
2022/07/19 08:50:59;;;;;;;4.32;2.90;;;;;;;24.77;35.72;98278.03;10377279;28;20516;-56
2022/07/19 08:55:59;;;;;;;5.25;2.80;;;;;;;24.83;35.66;98283.06;10375778;28;20549;-56
2022/07/19 09:00:58;;;;;;;8.63;3.28;;;;;;;24.89;36.97;98274.81;10377319;28;20095;-56
2022/07/19 09:06:04;;;;;;;5.35;2.90;;;;;;;24.80;35.61;98280.56;10375289;28;20045;-56
2022/07/19 09:11:15;;;;;;;7.80;2.97;;;;;;;24.93;37.22;98272.00;10376322;28;20069;-56
2022/07/19 09:16:14;;;;;;;4.60;3.08;;;;;;;24.95;35.77;98273.63;10376734;28;20068;-56
2022/07/19 09:21:13;;;;;;;3.97;2.80;;;;;;;25.04;35.55;98277.63;10376639;28;20103;-56
2022/07/19 09:26:12;;;;;;;3.72;2.80;;;;;;;25.25;33.24;98260.56;10376216;28;20031;-56
2022/07/19 09:31:11;;;;;;;4.30;2.45;;;;;;;25.32;32.87;98259.31;10373063;28;20064;-56
2022/07/19 09:36:14;;;;;;;6.47;3.13;;;;;;;25.41;33.57;98259.75;10372069;28;20029;-56
2022/07/19 09:41:18;;;;;;;4.40;2.80;;;;;;;25.67;31.88;98245.09;10372136;28;20076;-57
2022/07/19 09:46:40;;;;;;;6.03;2.90;;;;;;;25.54;31.68;98242.25;10371971;28;20075;-55
2022/07/19 09:51:53;;;;;;;2.80;2.55;;;;;;;25.58;32.31;98253.56;10371417;28;20534;-58
2022/07/19 09:56:54;;;;;;;3.40;2.80;;;;;;;25.55;31.97;98245.75;10371908;28;20110;-57
2022/07/19 10:01:55;;;;;;;4.97;2.80;;;;;;;25.91;31.74;98246.41;10369941;28;20079;-56
2022/07/19 10:06:54;;;;;;;7.13;3.40;;;;;;;25.87;30.48;98244.84;10363795;28;20056;-57
2022/07/19 10:11:53;;;;;;;6.85;3.67;;;;;;;25.96;30.55;98232.84;10371210;28;20075;-56
2022/07/19 10:17:17;;;;;;;3.60;2.78;;;;;;;26.17;30.97;98234.28;10371102;28;20068;-57
2022/07/19 10:22:24;;;;;;;5.25;3.00;;;;;;;26.51;31.02;98232.38;10371028;28;20065;-57
2022/07/19 10:27:25;;;;;;;6.97;3.10;;;;;;;26.78;31.26;98237.88;10370729;28;20079;-56
2022/07/19 10:32:30;;;;;;;3.17;2.70;;;;;;;26.87;29.76;98222.34;10371577;28;20488;-57
2022/07/19 10:37:42;;;;;;;4.60;3.05;;;;;;;26.62;29.59;98215.78;10371474;28;20076;-57
2022/07/19 10:43:06;;;;;;;4.45;2.72;;;;;;;26.75;29.86;98207.94;10376287;28;20091;-58
2022/07/19 10:48:08;;;;;;;7.43;2.72;;;;;;;26.81;29.50;98207.53;10381184;28;20566;-55
2022/07/19 10:53:07;;;;;;;6.25;2.58;;;;;;;26.85;30.29;98209.09;10378404;28;20501;-55
2022/07/19 10:58:06;;;;;;;4.30;2.50;;;;;;;27.06;29.97;98206.09;10377980;28;20060;-56
2022/07/19 11:03:20;;;;;;;3.03;2.13;;;;;;;27.11;29.01;98204.00;10366473;28;20036;-56
2022/07/19 11:08:40;;;;;;;7.53;2.30;;;;;;;26.89;28.23;98197.34;10336537;28;20069;-57
2022/07/19 11:13:42;;;;;;;3.13;2.40;;;;;;;26.85;28.52;98187.81;10336941;28;20069;-56
2022/07/19 11:18:43;;;;;;;4.93;2.35;;;;;;;26.68;29.98;98190.59;10336341;28;20081;-56
2022/07/19 11:23:43;;;;;;;2.88;2.10;;;;;;;26.64;29.19;98179.28;10348495;28;20088;-57
2022/07/19 11:28:43;;;;;;;2.28;2.08;;;;;;;26.50;29.17;98173.91;10376985;28;20053;-56
2022/07/19 11:33:44;;;;;;;3.40;2.20;;;;;;;26.58;28.72;98172.53;10376837;28;20080;-56
2022/07/19 11:38:46;;;;;;;4.13;2.03;;;;;;;26.76;27.65;98162.56;10376639;28;20503;-56
2022/07/19 11:43:54;;;;;;;4.00;2.50;;;;;;;27.17;27.78;98163.69;10376947;28;20472;-56
2022/07/19 11:48:58;;;;;;;3.33;2.30;;;;;;;27.21;28.26;98167.84;10376555;28;20088;-56
2022/07/19 11:53:59;;;;;;;4.03;2.40;;;;;;;27.11;27.90;98156.06;10375992;28;20071;-56
2022/07/19 11:59:00;;;;;;;3.60;2.10;;;;;;;27.30;27.74;98153.94;10374722;28;20080;-56
2022/07/19 12:04:05;;;;;;;2.55;1.95;;;;;;;27.71;27.27;98149.66;10357133;28;20489;-56
2022/07/19 12:09:06;;;;;;;3.17;1.90;;;;;;;27.79;26.84;98153.50;10357133;28;20103;-56
2022/07/19 12:14:23;;;;;;;4.90;2.40;;;;;;;27.74;26.62;98152.94;10358731;28;20075;-56
2022/07/19 12:19:29;;;;;;;2.10;1.90;;;;;;;27.95;26.56;98147.19;10361929;28;20052;-56
2022/07/19 12:24:30;;;;;;;2.72;1.88;;;;;;;27.90;25.91;98144.81;10356533;28;20072;-57
2022/07/19 12:29:29;;;;;;;2.67;1.73;;;;;;;27.86;25.80;98147.78;10357064;28;20072;-56
2022/07/19 12:34:29;;;;;;;3.60;2.03;;;;;;;27.80;26.09;98111.72;10356505;28;20053;-56
2022/07/19 12:39:29;;;;;;;2.10;1.90;;;;;;;28.07;26.30;98127.72;10362870;28;20516;-56
2022/07/19 12:44:29;;;;;;;7.97;2.40;;;;;;;27.98;26.01;98128.28;10356907;28;20084;-55
2022/07/19 12:49:41;;;;;;;3.05;2.10;;;;;;;27.80;26.40;98122.38;10357051;28;20115;-55
2022/07/19 12:54:40;;;;;;;3.53;2.22;;;;;;;27.90;26.75;98127.97;10356609;28;20068;-56
2022/07/19 12:59:39;;;;;;;4.53;2.40;;;;;;;28.14;26.77;98115.69;10355453;28;20041;-56
2022/07/19 13:04:40;;;;;;;4.10;2.00;;;;;;;28.04;26.50;98114.56;10357637;28;20068;-55
2022/07/19 13:09:40;;;;;;;3.80;2.20;;;;;;;27.71;26.63;98101.66;10354203;28;20441;-56
2022/07/19 13:14:40;;;;;;;3.10;2.40;;;;;;;27.86;26.90;98095.28;10355051;28;20061;-56
2022/07/19 13:19:39;;;;;;;2.50;1.90;;;;;;;28.13;26.12;98103.31;10346060;28;20065;-56
2022/07/19 13:24:39;;;;;;;2.80;2.00;;;;;;;28.36;25.77;98093.75;10338148;28;20072;-57
2022/07/19 13:29:38;;;;;;;4.05;1.98;;;;;;;28.51;25.45;98089.16;10348093;28;20068;-56
2022/07/19 13:34:38;;;;;;;3.38;2.05;;;;;;;28.68;25.19;98082.69;10353549;28;20072;-56
2022/07/19 13:39:37;;;;;;;3.45;2.25;;;;;;;28.78;24.91;98083.75;10357798;28;20081;-56
2022/07/19 13:44:36;;;;;;;4.10;2.00;;;;;;;28.90;24.97;98074.03;10362712;28;20082;-56
2022/07/19 13:49:35;;;;;;;3.70;1.98;;;;;;;28.85;24.47;98074.34;10357355;28;20022;-56
2022/07/19 13:54:34;;;;;;;4.82;2.35;;;;;;;28.76;24.28;98064.31;10356729;28;20036;-56
2022/07/19 13:59:33;;;;;;;3.40;2.20;;;;;;;28.77;25.25;98067.84;10356439;28;20038;-56
2022/07/19 14:04:32;;;;;;;3.50;2.10;;;;;;;28.67;24.71;98065.81;10363814;28;20056;-56
2022/07/19 14:09:31;;;;;;;4.05;2.20;;;;;;;28.67;24.68;98060.47;10356264;28;20025;-57
2022/07/19 14:14:30;;;;;;;4.47;1.80;;;;;;;28.75;24.66;98064.41;10355565;28;20692;-56
2022/07/19 14:19:29;;;;;;;3.13;1.90;;;;;;;28.58;24.75;98058.41;10366005;28;20771;-56
2022/07/19 14:24:28;;;;;;;5.53;2.22;;;;;;;28.27;25.50;98064.13;10377401;28;20045;-56
2022/07/19 14:29:27;;;;;;;4.65;2.25;;;;;;;28.29;25.96;98070.22;10376366;28;20102;-56
2022/07/19 14:34:27;;;;;;;2.25;1.90;;;;;;;28.30;25.70;98063.94;10365830;28;20080;-56
2022/07/19 14:39:26;;;;;;;2.90;1.80;;;;;;;28.27;25.78;98061.47;10357185;28;20050;-56
2022/07/19 14:44:24;;;;;;;2.63;2.00;;;;;;;28.19;25.23;98059.34;10353815;28;20055;-56
2022/07/19 14:49:24;;;;;;;4.13;1.88;;;;;;;28.01;26.06;98037.41;10361376;28;20112;-56
2022/07/19 14:54:23;;;;;;;3.10;2.20;;;;;;;28.16;26.39;98046.22;10373587;28;20068;-56
2022/07/19 14:59:24;;;;;;;3.20;2.22;;;;;;;27.92;26.34;98046.88;10372835;28;20059;-56
2022/07/19 15:04:23;;;;;;;2.70;2.10;;;;;;;27.95;26.01;98051.16;10373383;28;20077;-56
2022/07/19 15:09:22;;;;;;;5.20;1.92;;;;;;;27.90;26.35;98040.78;10372604;28;20064;-56
2022/07/19 15:14:21;;;;;;;3.00;1.90;;;;;;;27.85;26.19;98045.59;10341821;28;20033;-56
2022/07/19 15:19:20;;;;;;;2.00;1.80;;;;;;;27.88;26.37;98048.03;10342259;28;20054;-56
2022/07/19 15:24:19;;;;;;;4.13;2.65;;;;;;;27.83;26.71;98042.16;10329936;28;20064;-56
2022/07/19 15:29:18;;;;;;;3.33;2.17;;;;;;;27.67;26.46;98041.47;10332817;28;20084;-56
2022/07/19 15:34:17;;;;;;;3.42;2.20;;;;;;;27.47;26.55;98042.78;10335565;28;20035;-56
2022/07/19 15:39:16;;;;;;;2.60;1.90;;;;;;;27.41;27.07;98031.53;10361294;28;20040;-57
2022/07/19 15:44:15;;;;;;;3.00;2.17;;;;;;;27.49;27.04;98039.03;10376801;28;20087;-56
2022/07/19 15:49:14;;;;;;;3.53;2.20;;;;;;;27.49;26.78;98044.38;10376520;28;20071;-55
2022/07/19 15:54:13;;;;;;;2.50;2.20;;;;;;;27.37;26.78;98040.66;10375583;28;20052;-56
2022/07/19 15:59:12;;;;;;;3.30;2.00;;;;;;;27.15;27.11;98037.69;10376421;28;20142;-56
2022/07/19 16:04:11;;;;;;;3.42;2.35;;;;;;;27.12;27.19;98037.88;10375771;28;20104;-57
2022/07/19 16:09:10;;;;;;;3.72;2.42;;;;;;;27.14;27.49;98033.31;10375315;28;20105;-57
2022/07/19 16:14:09;;;;;;;2.78;2.10;;;;;;;27.20;27.44;98035.59;10375572;28;20025;-56
2022/07/19 16:19:08;;;;;;;4.25;2.25;;;;;;;27.11;27.68;98039.69;10375273;28;20041;-57
2022/07/19 16:24:08;;;;;;;3.53;2.40;;;;;;;27.06;27.25;98040.94;10375284;28;20512;-56
2022/07/19 16:29:07;;;;;;;4.85;2.60;;;;;;;26.89;27.70;98036.69;10375687;28;20057;-56
2022/07/19 16:34:06;;;;;;;4.80;2.70;;;;;;;26.89;27.76;98042.03;10378533;28;20077;-56
2022/07/19 16:39:05;;;;;;;5.25;3.00;;;;;;;26.81;27.83;98042.44;10376613;28;20099;-56
2022/07/19 16:44:04;;;;;;;4.53;3.05;;;;;;;26.61;27.54;98026.88;10377742;28;20025;-56
2022/07/19 16:49:03;;;;;;;6.85;3.30;;;;;;;26.47;27.51;98043.72;10377293;28;20495;-55
2022/07/19 16:54:02;;;;;;;3.95;2.92;;;;;;;26.39;27.61;98045.97;10377767;28;20496;-55
2022/07/19 16:59:01;;;;;;;5.20;3.30;;;;;;;26.24;28.14;98039.78;10377481;28;20060;-55
2022/07/19 17:04:00;;;;;;;4.95;3.20;;;;;;;26.22;27.85;98053.16;10377222;28;20021;-55
2022/07/19 17:08:59;;;;;;;7.00;3.42;;;;;;;26.20;28.79;98062.19;10377196;28;20100;-55
2022/07/19 17:13:58;;;;;;;10.05;4.30;;;;;;;26.06;29.43;98049.66;10376832;28;20100;-55
2022/07/19 17:18:58;;;;;;;9.65;4.05;;;;;;;25.83;29.68;98051.00;10376444;28;20049;-55
2022/07/19 17:23:57;;;;;;;5.60;3.28;;;;;;;25.72;29.76;98057.81;10376578;28;20489;-55
2022/07/19 17:28:56;;;;;;;5.65;3.17;;;;;;;25.52;29.72;98063.38;10375759;28;20056;-55
2022/07/19 17:33:55;;;;;;;7.30;3.38;;;;;;;25.34;30.25;98065.31;10372674;28;20051;-57
2022/07/19 17:38:54;;;;;;;12.32;3.58;;;;;;;25.17;30.21;98066.22;10371018;28;20111;-56
2022/07/19 17:43:53;;;;;;;5.13;3.30;;;;;;;25.03;30.61;98066.13;10372420;28;20041;-56
2022/07/19 17:48:52;;;;;;;5.80;3.10;;;;;;;24.88;30.65;98075.78;10371411;28;20067;-55
2022/07/19 17:53:51;;;;;;;13.55;4.20;;;;;;;24.69;31.19;98074.09;10372245;28;20032;-56
2022/07/19 17:58:50;;;;;;;11.68;4.55;;;;;;;24.51;31.28;98087.47;10371929;28;20041;-57
2022/07/19 18:03:49;;;;;;;11.25;4.65;;;;;;;24.30;32.35;98087.63;10371684;28;20079;-56
2022/07/19 18:08:48;;;;;;;9.18;3.97;;;;;;;24.10;33.13;98098.38;10372095;28;20048;-55
2022/07/19 18:13:47;;;;;;;7.03;4.38;;;;;;;23.85;33.85;98091.66;10371278;28;20073;-57
2022/07/19 18:18:48;;;;;;;8.57;4.28;;;;;;;23.58;34.60;98099.16;10371626;28;20069;-55
2022/07/19 18:23:47;;;;;;;9.27;4.70;;;;;;;23.32;35.63;98108.31;10372021;28;20080;-56
2022/07/19 18:28:46;;;;;;;7.68;4.63;;;;;;;22.96;36.97;98096.72;10371251;28;20076;-55
2022/07/19 18:33:45;;;;;;;11.98;4.90;;;;;;;22.72;37.94;98119.81;10371189;28;20087;-57
2022/07/19 18:38:44;;;;;;;11.35;4.90;;;;;;;22.44;38.96;98128.09;10371055;28;20074;-56
2022/07/19 18:43:43;;;;;;;7.90;4.30;;;;;;;22.22;39.65;98127.28;10371526;28;20515;-56
2022/07/19 18:48:42;;;;;;;6.85;3.70;;;;;;;21.95;40.51;98133.63;10371478;28;20538;-56
2022/07/19 18:53:41;;;;;;;5.70;3.58;;;;;;;21.62;41.16;98132.38;10371150;28;20033;-56
2022/07/19 18:58:41;;;;;;;5.30;3.88;;;;;;;21.31;41.60;98128.25;10370682;28;20073;-56
2022/07/19 19:03:40;;;;;;;6.22;4.05;;;;;;;21.23;41.83;98143.53;10374865;28;20068;-56
2022/07/19 19:08:39;;;;;;;10.23;5.30;;;;;;;21.07;42.64;98151.97;10378595;28;20079;-56
2022/07/19 19:13:39;;;;;;;9.65;4.22;;;;;;;20.87;42.43;98159.78;10377879;28;20031;-55
2022/07/19 19:18:38;;;;;;;8.00;3.30;;;;;;;20.72;42.86;98163.81;10377966;28;20183;-55
2022/07/19 19:23:37;;;;;;;6.50;3.85;;;;;;;20.53;43.26;98171.50;10378030;28;20179;-56
2022/07/19 19:28:36;;;;;;;4.70;2.90;;;;;;;20.32;43.79;98180.97;10378278;28;20037;-55
2022/07/19 19:33:35;;;;;;;8.25;3.72;;;;;;;20.11;43.91;98173.78;10381427;28;20175;-57
2022/07/19 19:38:34;;;;;;;6.55;2.90;;;;;;;19.97;44.46;98182.16;10380443;28;20041;-56
2022/07/19 19:43:34;;;;;;;6.35;2.97;;;;;;;19.81;44.78;98180.00;10380629;28;20187;-56
2022/07/19 19:48:35;;;;;;;4.47;3.17;;;;;;;19.74;44.71;98174.97;10380550;28;20488;-57
2022/07/19 19:53:34;;;;;;;5.47;3.08;;;;;;;19.64;45.05;98177.03;10380336;28;20032;-56
2022/07/19 19:58:33;;;;;;;6.00;3.20;;;;;;;19.54;45.09;98178.19;10380440;28;20033;-56
2022/07/19 20:03:34;;;;;;;5.30;3.13;;;;;;;19.39;45.45;98175.13;10379624;28;20128;-57
2022/07/19 20:08:33;;;;;;;5.22;3.60;;;;;;;19.34;45.79;98177.00;10379494;28;20048;-56
2022/07/19 20:13:32;;;;;;;6.05;3.80;;;;;;;19.26;46.50;98192.16;10379061;28;20072;-56
2022/07/19 20:18:31;;;;;;;7.85;3.58;;;;;;;19.09;46.72;98197.91;10379005;28;20083;-56
2022/07/19 20:23:31;;;;;;;6.80;3.80;;;;;;;18.89;49.25;98190.56;10379373;28;20025;-56
2022/07/19 20:28:30;;;;;;;9.00;4.32;;;;;;;18.79;49.46;98199.63;10378478;28;20080;-56
2022/07/19 20:33:29;;;;;;;8.82;4.57;;;;;;;18.71;49.97;98191.91;10375176;28;20028;-56
2022/07/19 20:38:28;;;;;;;7.07;4.03;;;;;;;18.56;50.27;98203.69;10374943;28;20076;-56
2022/07/19 20:43:27;;;;;;;8.10;4.10;;;;;;;18.45;50.17;98205.72;10374913;28;20091;-56
2022/07/19 20:48:26;;;;;;;7.85;4.13;;;;;;;18.33;50.99;98204.25;10374212;28;20445;-56
2022/07/19 20:53:25;;;;;;;8.20;4.75;;;;;;;18.23;51.43;98209.81;10373159;28;20131;-56
2022/07/19 20:58:24;;;;;;;12.88;5.43;;;;;;;18.13;52.08;98204.78;10373928;28;20065;-56
2022/07/19 21:03:23;;;;;;;9.38;4.70;;;;;;;18.02;52.25;98201.53;10374443;28;20373;-56
2022/07/19 21:08:22;;;;;;;9.93;4.63;;;;;;;17.91;52.76;98200.91;10374404;28;20811;-56
2022/07/19 21:13:21;;;;;;;9.93;5.00;;;;;;;17.81;53.06;98200.28;10373743;28;20904;-56
2022/07/19 21:18:20;;;;;;;6.90;4.10;;;;;;;17.74;53.26;98217.03;10373718;28;20065;-56
2022/07/19 21:23:20;;;;;;;7.25;4.50;;;;;;;17.65;53.68;98198.88;10373425;28;20064;-56
2022/07/19 21:28:19;;;;;;;9.13;5.50;;;;;;;17.55;53.71;98206.09;10372452;28;20345;-56
2022/07/19 21:33:18;;;;;;;8.20;5.65;;;;;;;17.46;53.77;98207.13;10373351;28;20073;-56
2022/07/19 21:38:19;;;;;;;9.10;5.20;;;;;;;17.35;54.45;98214.38;10372656;28;20052;-56
2022/07/19 21:43:18;;;;;;;9.50;5.00;;;;;;;17.24;56.00;98222.47;10372831;28;20154;-56
2022/07/19 21:48:18;;;;;;;10.02;4.78;;;;;;;17.18;56.78;98233.06;10372336;28;20072;-56
2022/07/19 21:53:17;;;;;;;8.18;4.30;;;;;;;17.07;57.62;98222.78;10372040;28;20067;-56
2022/07/19 21:58:16;;;;;;;;;;;;;;;16.95;58.08;98224.78;10372146;28;20128;-56
2022/07/19 22:03:14;;;;;;;11.23;5.00;;;;;;;16.84;58.09;98224.97;10371785;28;20007;-56
2022/07/19 22:08:13;;;;;;;;;;;;;;;16.72;59.16;98223.41;10372406;28;20116;-56
2022/07/19 22:13:12;;;;;;;6.43;4.63;;;;;;;16.56;60.42;98222.84;10371701;28;19908;-56
2022/07/19 22:18:11;;;;;;;;;;;;;;;16.30;60.60;98210.19;10371502;28;20403;-56
2022/07/19 22:23:13;;;;;;;7.97;4.78;;;;;;;16.30;60.96;98225.88;10371429;28;20003;-56
2022/07/19 22:28:12;;;;;;;7.63;4.80;;;;;;;16.23;61.37;98226.88;10371602;28;20504;-56
2022/07/19 22:33:11;;;;;;;;;;;;;;;16.12;61.94;98220.97;10370777;28;20043;-56
2022/07/19 22:38:10;;;;;;;9.52;4.70;;;;;;;16.07;61.96;98223.66;10375931;28;20383;-56
2022/07/19 22:43:09;;;;;;;;;;;;;;;16.00;62.20;98217.66;10380442;28;20079;-56
2022/07/19 22:48:11;;;;;;;9.50;5.20;;;;;;;15.93;62.46;98228.22;10380282;28;20376;-56
2022/07/19 22:53:13;;;;;;;8.10;5.22;;;;;;;15.84;62.85;98237.09;10378891;28;20072;-56
2022/07/19 22:58:12;;;;;;;9.73;5.63;;;;;;;15.75;63.44;98226.72;10377727;28;20348;-56
2022/07/19 23:03:11;;;;;;;;;;;;;;;15.68;63.20;98242.50;10379440;28;20357;-56
2022/07/19 23:08:10;;;;;;;10.40;6.13;;;;;;;15.64;64.06;98239.94;10378542;28;19908;-56
2022/07/19 23:13:09;;;;;;;12.25;6.30;;;;;;;15.60;64.18;98238.25;10378467;28;20037;-56